Impacts TAF Board INFO
FOR SITUATIONAL AWARENESS. NOT TO BE USED FOR FLIGHT PLANNING PURPOSES.
IDs:

KIAH - Houston/Bush Intl, TX, US

Issued at 0258 UTC 18 Jan 2018
Updated at 0418 UTC 18 Jan 2018
Potential Impact None Slight Moderate High
Time0353Z 18/05Z 18/06Z 18/07Z 18/08Z 18/09Z 18/10Z 18/11Z 18/12Z 18/13Z 18/14Z 18/15Z 18/16Z 18/17Z>>
Type OBS PRVL PRVL PRVL PRVL PRVL PRVL PRVL PRVL PRVL PRVL PRVL PRVL PRVL
VIS 10 >6 >6 >6 >6 >6 >6 >6 >6 >6 >6 >6 >6 >6
CIG -- -- -- -- -- 250 250 250 250 250 250 200 200 200
Cover FEW FEW FEW FEW FEW BKN BKN BKN BKN BKN BKN BKN BKN BKN
FltCat VFR VFR VFR VFR VFR VFR VFR VFR VFR VFR VFR VFR VFR VFR
WX -- -- -- -- -- -- -- -- -- -- -- -- -- --
WDir 10 360 360 360 360 30 30 30 30 30 30 70 70 70
WSpd 4 5 5 5 5 2 2 2 2 2 2 6 6 6
WGst -- -- -- -- -- -- -- -- -- -- -- -- -- --

Raw TAF
KIAH 180258Z 1803/1906 36005KT P6SM FEW250
  FM180900 03002KT P6SM SCT150 BKN250
  FM181500 07006KT P6SM SCT080 BKN200
  FM190300 12003KT P6SM SCT030


Raw METAR
KIAH 180353Z 01004KT 10SM FEW250 M03/M08 A3064 RMK AO2 SLP376 T10331083 $
KIAH 180253Z 36004KT 10SM FEW250 M01/M10 A3063 RMK AO2 SLP375 T10111100 55000 $
KIAH 180153Z 36005KT 10SM FEW250 M01/M09 A3063 RMK AO2 SLP372 T10061094 $

METAR Board
Radar Display
Forecast Discussion

FOR SITUATIONAL AWARENESS. NOT TO BE USED FOR FLIGHT PLANNING PURPOSES.